K7BM

Cottonwood Pass Airport

Cottonwood Pass, Colorado, USA
METAR K7BM 220630Z AUTO 27013G20KT 10SM CLR 03/M03 A3026 RMK AO2
Observed Flight Rules
Apr-22 @ 06:30 UTC (29 minutes ago) Visual Flight Rules
Wind Visibility Clouds
270° at 13 knots
 Gusting to 20 knots
10 miles
  • Clear skies
Temperatures Readings
Current 3°C / 37°F
Dewpoint -3°C / 27°F
Humidity 65%
Altimeter 30.26" Hg
Pressure 1025 hPa
Elevation 2995
METAR K7BM 220630Z AUTO 27013G20KT 10SM CLR 03/M03 A3026 RMK AO2
Observed Flight Rules
Apr-22 @ 06:30 UTC
(29 minutes ago)
VFR
Wind Visibility
270° at 13 knots
 Gusting to 20 knots
10 miles
Clouds
  • Clear skies
Temperature Dewpoint
3°C / 37°F -3°C / 27°F
Humidity Altimeter Pressure
65% 30.26" Hg 1025 hPa